Time;durP1;ratioP1;P1;durP2;ratioP2;P2;SDS_P1;SDS_P2;PMS_P1;PMS_P2;Temp;Humidity;BMP_temperature;BMP_pressure;BME280_temperature;BME280_humidity;BME280_pressure;Samples;Min_cycle;Max_cycle;Signal;HPM_P1;HPM_P2
2022/03/02 00:00:22;;;;;;;23.60;14.17;;;2.80;99.90;;;;;;5100231;28;20712;-51
2022/03/02 00:02:49;;;;;;;23.60;14.47;;;2.70;99.90;;;;;;5088740;28;20201;-50
2022/03/02 00:05:17;;;;;;;20.63;13.67;;;2.70;99.90;;;;;;5102359;28;20842;-52
2022/03/02 00:07:45;;;;;;;19.97;13.47;;;2.70;99.90;;;;;;5101331;27;20921;-51
2022/03/02 00:10:12;;;;;;;20.50;13.73;;;2.70;99.90;;;;;;5094069;28;20224;-54
2022/03/02 00:12:39;;;;;;;21.10;14.23;;;2.70;99.90;;;;;;5099920;28;20924;-53
2022/03/02 00:15:06;;;;;;;24.07;14.13;;;2.70;99.90;;;;;;5103550;28;20210;-50
2022/03/02 00:17:33;;;;;;;22.87;13.43;;;2.70;99.90;;;;;;5084057;28;20290;-48
2022/03/02 00:19:59;;;;;;;20.53;13.40;;;2.70;99.90;;;;;;5103241;28;20205;-48
2022/03/02 00:22:27;;;;;;;23.30;14.40;;;2.70;99.90;;;;;;5100024;28;20197;-55
2022/03/02 00:24:54;;;;;;;23.10;14.90;;;2.70;99.90;;;;;;5103037;28;20200;-48
2022/03/02 00:27:23;;;;;;;21.40;14.17;;;2.70;99.90;;;;;;5092213;28;20254;-52
2022/03/02 00:29:49;;;;;;;22.07;13.83;;;2.70;99.90;;;;;;5102525;28;20197;-48
2022/03/02 00:32:16;;;;;;;23.07;13.60;;;2.60;99.90;;;;;;5096042;28;20533;-52
2022/03/02 00:34:44;;;;;;;20.37;13.77;;;2.60;99.90;;;;;;5094210;28;20259;-54
2022/03/02 00:37:12;;;;;;;21.60;13.90;;;2.60;99.90;;;;;;5102627;28;20212;-53
2022/03/02 00:39:40;;;;;;;21.70;15.03;;;2.60;99.90;;;;;;5097225;28;20205;-53
2022/03/02 00:42:07;;;;;;;24.83;14.07;;;2.60;99.90;;;;;;5094468;28;20580;-52
2022/03/02 00:44:33;;;;;;;24.43;14.67;;;2.60;99.90;;;;;;5099319;28;20185;-51
2022/03/02 00:47:00;;;;;;;21.87;13.83;;;2.60;99.90;;;;;;5103035;28;20574;-55
2022/03/02 00:49:28;;;;;;;20.97;14.07;;;2.60;99.90;;;;;;5085341;28;20213;-51
2022/03/02 00:51:55;;;;;;;22.40;13.93;;;2.50;99.90;;;;;;5103194;28;20216;-47
2022/03/02 00:54:22;;;;;;;24.80;14.50;;;2.50;99.90;;;;;;5100472;28;20201;-55
2022/03/02 00:56:50;;;;;;;20.00;13.57;;;2.50;99.90;;;;;;5102109;28;20194;-52
2022/03/02 00:59:17;;;;;;;23.57;13.97;;;2.50;99.90;;;;;;5092607;28;20204;-55
2022/03/02 01:01:44;;;;;;;24.07;14.57;;;2.40;99.90;;;;;;5101179;28;20205;-52
2022/03/02 01:04:11;;;;;;;23.70;15.03;;;2.40;99.90;;;;;;5089070;28;20209;-51
2022/03/02 01:06:38;;;;;;;23.00;13.63;;;2.40;99.90;;;;;;5099412;28;20844;-53
2022/03/02 01:09:05;;;;;;;24.07;14.17;;;2.40;99.90;;;;;;5102873;28;20565;-52
2022/03/02 01:11:32;;;;;;;23.10;14.60;;;2.30;99.90;;;;;;5098503;28;20819;-51
2022/03/02 01:14:00;;;;;;;21.40;13.63;;;2.30;99.90;;;;;;5094209;28;20201;-54
2022/03/02 01:16:26;;;;;;;21.47;14.73;;;2.30;99.90;;;;;;5099131;28;20203;-55
2022/03/02 01:18:53;;;;;;;21.80;13.90;;;2.30;99.90;;;;;;5090809;28;20271;-50
2022/03/02 01:21:20;;;;;;;21.97;13.67;;;2.30;99.90;;;;;;5104218;28;20323;-54
2022/03/02 01:23:48;;;;;;;20.73;13.43;;;2.20;99.90;;;;;;5105793;28;20188;-53
2022/03/02 01:26:14;;;;;;;25.37;14.67;;;2.20;99.90;;;;;;5105186;28;20208;-54
2022/03/02 01:28:41;;;;;;;21.67;14.43;;;2.20;99.90;;;;;;5095617;28;20212;-52
2022/03/02 01:31:09;;;;;;;26.00;14.80;;;2.20;99.90;;;;;;5106875;28;20632;-54
2022/03/02 01:33:36;;;;;;;21.53;13.87;;;2.20;99.90;;;;;;5088308;28;20217;-53
2022/03/02 01:36:02;;;;;;;22.20;14.17;;;2.10;99.90;;;;;;5106291;28;20204;-51
2022/03/02 01:38:29;;;;;;;22.07;13.63;;;2.10;99.90;;;;;;5102810;28;20860;-48
2022/03/02 01:40:56;;;;;;;22.67;14.03;;;2.10;99.90;;;;;;5105925;28;20227;-51
2022/03/02 01:43:27;;;;;;;23.03;15.23;;;2.10;99.90;;;;;;5103407;28;20212;-53
2022/03/02 01:45:53;;;;;;;23.23;14.90;;;2.10;99.90;;;;;;5097415;28;20202;-51
2022/03/02 01:48:21;;;;;;;24.30;15.17;;;2.10;99.90;;;;;;5104485;28;20788;-54
2022/03/02 01:50:48;;;;;;;27.93;15.70;;;2.10;99.90;;;;;;5091273;28;20224;-53
2022/03/02 01:53:15;;;;;;;26.37;14.77;;;2.10;99.90;;;;;;5104817;28;20193;-54
2022/03/02 01:55:42;;;;;;;24.60;15.47;;;2.10;99.90;;;;;;5103803;28;20189;-51
2022/03/02 01:58:09;;;;;;;25.37;15.60;;;2.10;99.90;;;;;;5106007;28;20836;-52
2022/03/02 02:00:36;;;;;;;25.07;15.53;;;2.10;99.90;;;;;;5094004;28;20209;-54
2022/03/02 02:03:02;;;;;;;21.67;13.73;;;2.20;99.90;;;;;;5105678;28;20198;-54
2022/03/02 02:05:30;;;;;;;24.27;16.07;;;2.20;99.90;;;;;;5087617;28;20208;-56
2022/03/02 02:07:57;;;;;;;27.20;16.17;;;2.20;99.90;;;;;;5105661;28;20197;-53
2022/03/02 02:10:24;;;;;;;22.23;15.53;;;2.20;99.90;;;;;;5102580;28;20225;-53
2022/03/02 02:12:51;;;;;;;25.40;15.33;;;2.20;99.90;;;;;;5104963;28;20203;-55
2022/03/02 02:15:17;;;;;;;26.57;15.47;;;2.30;99.90;;;;;;5100163;28;20203;-54
2022/03/02 02:17:44;;;;;;;25.43;15.57;;;2.30;99.90;;;;;;5099418;28;20201;-50
2022/03/02 02:20:12;;;;;;;26.00;15.77;;;2.30;99.90;;;;;;5105227;28;20804;-51
2022/03/02 02:22:41;;;;;;;22.13;14.80;;;2.30;99.90;;;;;;5088581;28;20282;-50
2022/03/02 02:25:09;;;;;;;24.90;16.10;;;2.30;99.90;;;;;;5105320;28;20205;-54
2022/03/02 02:27:35;;;;;;;22.20;14.27;;;2.30;99.90;;;;;;5092131;28;20208;-53
2022/03/02 02:30:04;;;;;;;23.63;14.50;;;2.40;99.90;;;;;;5099691;28;20284;-51
2022/03/02 02:32:31;;;;;;;25.50;15.77;;;2.40;99.90;;;;;;5097035;28;20286;-48
2022/03/02 02:34:58;;;;;;;23.90;15.13;;;2.40;99.90;;;;;;5100999;28;20189;-53
2022/03/02 02:37:25;;;;;;;25.90;15.33;;;2.40;99.90;;;;;;5091646;28;20218;-50
2022/03/02 02:39:59;;;;;;;21.17;14.37;;;2.30;99.90;;;;;;5100685;28;20201;-53
2022/03/02 02:42:26;;;;;;;23.33;15.80;;;2.30;99.90;;;;;;5105236;28;20271;-50
2022/03/02 02:44:54;;;;;;;28.17;16.70;;;2.30;99.90;;;;;;5101253;28;20261;-50
2022/03/02 02:47:21;;;;;;;24.83;15.17;;;2.30;99.90;;;;;;5096844;28;20197;-50
2022/03/02 02:49:47;;;;;;;24.73;15.33;;;2.30;99.90;;;;;;5102146;28;20200;-52
2022/03/02 02:52:14;;;;;;;23.33;14.73;;;2.30;99.90;;;;;;5090883;28;20298;-55
2022/03/02 02:54:42;;;;;;;24.33;15.00;;;2.30;99.90;;;;;;5102623;28;20292;-55
2022/03/02 02:57:10;;;;;;;25.70;15.93;;;2.30;99.90;;;;;;5103414;28;20199;-49
2022/03/02 02:59:37;;;;;;;20.83;14.40;;;2.30;99.90;;;;;;5103755;28;20196;-55
2022/03/02 03:02:04;;;;;;;26.80;14.70;;;2.30;99.90;;;;;;5093862;28;20899;-53
2022/03/02 03:04:31;;;;;;;24.37;15.50;;;2.20;99.90;;;;;;5104882;28;20219;-53
2022/03/02 03:06:57;;;;;;;23.13;15.80;;;2.20;99.90;;;;;;5100933;28;20194;-48
2022/03/02 03:09:24;;;;;;;22.57;15.30;;;2.20;99.90;;;;;;5090637;28;20220;-49
2022/03/02 03:11:51;;;;;;;25.27;15.10;;;2.20;99.90;;;;;;5099834;28;20673;-52
2022/03/02 03:14:19;;;;;;;24.17;14.83;;;2.20;99.90;;;;;;5104466;28;20216;-50
2022/03/02 03:16:45;;;;;;;23.27;15.33;;;2.20;99.90;;;;;;5101315;28;20204;-53
2022/03/02 03:19:12;;;;;;;22.47;13.87;;;2.10;99.90;;;;;;5095404;28;20223;-50
2022/03/02 03:21:39;;;;;;;26.00;15.07;;;2.10;99.90;;;;;;5102933;28;20221;-51
2022/03/02 03:24:06;;;;;;;19.43;13.93;;;2.10;99.90;;;;;;5088587;28;20217;-49
2022/03/02 03:26:32;;;;;;;21.43;13.63;;;2.10;99.90;;;;;;5103625;28;20200;-53
2022/03/02 03:28:59;;;;;;;26.50;15.47;;;2.10;99.90;;;;;;5100817;28;20192;-47
2022/03/02 03:31:27;;;;;;;20.87;15.00;;;2.10;99.90;;;;;;5104257;28;20221;-53
2022/03/02 03:33:54;;;;;;;21.07;14.20;;;2.00;99.90;;;;;;5091723;28;20197;-52
2022/03/02 03:36:21;;;;;;;22.93;14.40;;;2.00;99.90;;;;;;5104012;28;20654;-50
2022/03/02 03:38:48;;;;;;;21.77;14.13;;;2.00;99.90;;;;;;5089227;28;20193;-52
2022/03/02 03:41:15;;;;;;;22.50;14.43;;;2.00;99.90;;;;;;5098352;28;20725;-50
2022/03/02 03:43:44;;;;;;;23.67;14.80;;;2.00;99.90;;;;;;5101759;28;20201;-54
2022/03/02 03:46:10;;;;;;;21.67;15.17;;;1.90;99.90;;;;;;5102589;28;20252;-55
2022/03/02 03:48:38;;;;;;;22.93;14.20;;;1.90;99.90;;;;;;5093265;28;20205;-53
2022/03/02 03:51:06;;;;;;;21.77;15.00;;;1.90;99.90;;;;;;5101721;28;20212;-50
2022/03/02 03:53:33;;;;;;;24.40;14.53;;;1.90;99.90;;;;;;5103959;28;20754;-55
2022/03/02 03:56:00;;;;;;;21.97;14.43;;;1.80;99.90;;;;;;5086087;28;20197;-50
2022/03/02 03:58:27;;;;;;;22.30;14.83;;;1.80;99.90;;;;;;5103745;28;20618;-50
2022/03/02 04:00:54;;;;;;;23.80;15.43;;;1.70;99.90;;;;;;5099484;28;20215;-53
2022/03/02 04:03:21;;;;;;;19.97;14.30;;;1.70;99.90;;;;;;5103738;28;20203;-50
2022/03/02 04:05:49;;;;;;;25.07;15.03;;;1.70;99.90;;;;;;5091970;28;20296;-54
2022/03/02 04:08:15;;;;;;;24.13;13.93;;;1.80;99.90;;;;;;5103556;28;20699;-51
2022/03/02 04:10:42;;;;;;;23.17;14.27;;;1.80;99.90;;;;;;5092613;28;20225;-55
2022/03/02 04:13:10;;;;;;;22.27;14.40;;;1.80;99.90;;;;;;5097380;28;20228;-52
2022/03/02 04:15:37;;;;;;;22.77;14.03;;;1.70;99.90;;;;;;5102801;28;20204;-55
2022/03/02 04:18:06;;;;;;;26.70;14.90;;;1.70;99.90;;;;;;5100662;28;20193;-50
2022/03/02 04:20:33;;;;;;;23.67;14.70;;;1.60;99.90;;;;;;5094810;28;20232;-52
2022/03/02 04:23:03;;;;;;;22.13;15.57;;;1.60;99.90;;;;;;5100607;28;20384;-50
2022/03/02 04:25:29;;;;;;;23.77;15.07;;;1.50;99.90;;;;;;5103098;28;20192;-53
2022/03/02 04:27:56;;;;;;;21.83;15.07;;;1.50;99.90;;;;;;5083636;28;20348;-50
2022/03/02 04:30:23;;;;;;;27.37;14.77;;;1.50;99.90;;;;;;5103214;28;20231;-50
2022/03/02 04:32:50;;;;;;;25.00;15.53;;;1.50;99.90;;;;;;5099554;28;20215;-53
2022/03/02 04:35:17;;;;;;;24.07;14.47;;;1.50;99.90;;;;;;5095256;28;20511;-51
2022/03/02 04:37:46;;;;;;;26.23;15.93;;;1.50;99.90;;;;;;5100404;28;20200;-53
2022/03/02 04:40:14;;;;;;;31.33;16.03;;;1.40;99.90;;;;;;5094284;28;20204;-51
2022/03/02 04:42:41;;;;;;;22.90;14.53;;;1.40;99.90;;;;;;5091060;28;20747;-54
2022/03/02 04:45:08;;;;;;;24.23;14.33;;;1.40;99.90;;;;;;5097574;28;20201;-55
2022/03/02 04:47:35;;;;;;;20.77;14.53;;;1.40;99.90;;;;;;5101497;28;20205;-54
2022/03/02 04:50:02;;;;;;;25.10;15.13;;;1.40;99.90;;;;;;5100423;28;20191;-50
2022/03/02 04:52:29;;;;;;;26.17;15.17;;;1.40;99.90;;;;;;5093180;28;20223;-52
2022/03/02 04:55:06;;;;;;;21.07;14.53;;;1.30;99.90;;;;;;5103694;28;20991;-49
2022/03/02 04:57:36;;;;;;;23.40;14.27;;;1.30;99.90;;;;;;5103092;28;20211;-54
2022/03/02 05:00:05;;;;;;;24.77;14.73;;;1.30;99.90;;;;;;5091233;27;20203;-56
2022/03/02 05:02:31;;;;;;;24.07;14.23;;;1.20;99.90;;;;;;5103728;27;20195;-53
2022/03/02 05:04:58;;;;;;;26.53;15.07;;;1.20;99.90;;;;;;5108964;27;20278;-55
2022/03/02 05:07:25;;;;;;;26.10;14.83;;;1.30;99.90;;;;;;5088718;28;20209;-55
2022/03/02 05:09:52;;;;;;;25.70;15.40;;;1.20;99.90;;;;;;5098001;28;20193;-55
2022/03/02 05:12:20;;;;;;;24.80;15.10;;;1.20;99.90;;;;;;5103882;28;20243;-51
2022/03/02 05:14:49;;;;;;;28.17;15.63;;;1.20;99.90;;;;;;5079050;28;20956;-54
2022/03/02 05:17:16;;;;;;;24.03;15.27;;;1.10;99.90;;;;;;5098804;28;20204;-55
2022/03/02 05:19:43;;;;;;;24.77;14.63;;;1.10;99.90;;;;;;5090651;27;20213;-54
2022/03/02 05:22:10;;;;;;;25.07;14.20;;;1.10;99.90;;;;;;5090546;28;20235;-51
2022/03/02 05:24:38;;;;;;;25.20;15.50;;;1.10;99.90;;;;;;5104960;27;20195;-56
2022/03/02 05:27:05;;;;;;;22.67;14.33;;;1.10;99.90;;;;;;5102447;28;20199;-55
2022/03/02 05:29:32;;;;;;;26.73;15.57;;;1.10;99.90;;;;;;5087033;28;20282;-54
2022/03/02 05:32:00;;;;;;;23.97;14.70;;;1.00;99.90;;;;;;5098501;28;20212;-55
2022/03/02 05:34:27;;;;;;;24.07;16.20;;;1.10;99.90;;;;;;5102042;28;20208;-56
2022/03/02 05:36:54;;;;;;;22.77;14.93;;;1.10;99.90;;;;;;5092516;27;21689;-53
2022/03/02 05:39:20;;;;;;;23.03;14.90;;;1.00;99.90;;;;;;5102244;27;20200;-56
2022/03/02 05:41:47;;;;;;;24.77;15.87;;;1.00;99.90;;;;;;5090510;27;20910;-52
2022/03/02 05:44:14;;;;;;;26.23;16.17;;;1.00;99.90;;;;;;5093799;27;20923;-53
2022/03/02 05:46:43;;;;;;;24.23;15.27;;;1.00;99.90;;;;;;5089952;27;20371;-50
2022/03/02 05:49:12;;;;;;;24.57;15.07;;;0.90;99.90;;;;;;5090693;27;20270;-52
2022/03/02 05:51:40;;;;;;;23.00;14.83;;;0.90;99.90;;;;;;5102056;27;20240;-53
2022/03/02 05:54:08;;;;;;;30.73;16.83;;;0.90;99.90;;;;;;5083228;27;20201;-50
2022/03/02 05:56:37;;;;;;;23.30;15.40;;;0.90;99.90;;;;;;5098211;28;20690;-51
2022/03/02 05:59:04;;;;;;;23.80;15.70;;;0.90;99.90;;;;;;5098513;27;20277;-53
2022/03/02 06:01:31;;;;;;;24.53;15.73;;;0.90;99.90;;;;;;5083583;27;20216;-52
2022/03/02 06:03:58;;;;;;;24.13;16.63;;;0.90;99.90;;;;;;5104086;28;20199;-50
2022/03/02 06:06:26;;;;;;;23.57;15.13;;;0.80;99.90;;;;;;5089793;28;20253;-52
2022/03/02 06:08:52;;;;;;;28.67;16.07;;;0.80;99.90;;;;;;5097536;28;20207;-49
2022/03/02 06:11:19;;;;;;;25.83;15.43;;;0.80;99.90;;;;;;5095633;28;20319;-54
2022/03/02 06:13:46;;;;;;;24.33;15.97;;;0.90;99.90;;;;;;5103453;28;20204;-50
2022/03/02 06:16:13;;;;;;;27.93;16.37;;;0.80;99.90;;;;;;5084804;28;20588;-54
2022/03/02 06:18:42;;;;;;;26.73;16.33;;;0.70;99.90;;;;;;5101796;28;20203;-55
2022/03/02 06:21:12;;;;;;;24.83;15.93;;;0.70;99.90;;;;;;5097429;27;20218;-55
2022/03/02 06:23:40;;;;;;;30.13;18.17;;;0.70;99.90;;;;;;5095403;27;20198;-49
2022/03/02 06:26:08;;;;;;;32.40;15.60;;;0.70;99.90;;;;;;5093968;28;20207;-53
2022/03/02 06:28:35;;;;;;;25.87;16.47;;;0.70;99.90;;;;;;5099394;27;20220;-54
2022/03/02 06:31:02;;;;;;;27.80;17.00;;;0.70;99.90;;;;;;5104719;27;20632;-56
2022/03/02 06:33:29;;;;;;;28.03;17.40;;;0.80;99.90;;;;;;5086371;27;20204;-53
2022/03/02 06:35:55;;;;;;;29.57;18.37;;;0.70;99.90;;;;;;5110357;27;20199;-51
2022/03/02 06:38:22;;;;;;;28.87;18.07;;;0.70;99.90;;;;;;5092082;27;20203;-54
2022/03/02 06:41:01;;;;;;;29.03;16.90;;;0.70;99.90;;;;;;5089369;27;20220;-55
2022/03/02 06:43:33;;;;;;;30.20;17.47;;;0.70;99.90;;;;;;5102447;28;20196;-50
2022/03/02 06:46:05;;;;;;;28.07;17.43;;;0.70;99.90;;;;;;5093676;28;20394;-49
2022/03/02 06:48:36;;;;;;;27.50;17.60;;;0.70;99.90;;;;;;5090516;28;20223;-54
2022/03/02 06:51:05;;;;;;;30.10;19.00;;;0.70;99.90;;;;;;5099738;28;20226;-54
2022/03/02 06:53:33;;;;;;;31.53;18.60;;;0.80;99.90;;;;;;5090007;28;20228;-55
2022/03/02 06:56:04;;;;;;;36.97;19.60;;;0.80;99.90;;;;;;5101054;28;20196;-50
2022/03/02 06:58:40;;;;;;;33.67;18.93;;;0.80;99.90;;;;;;5100413;27;20199;-52
2022/03/02 07:01:10;;;;;;;35.20;19.07;;;0.80;99.90;;;;;;5106696;27;20354;-53
2022/03/02 07:03:45;;;;;;;32.23;18.70;;;0.90;99.90;;;;;;5088585;27;20226;-54
2022/03/02 07:06:13;;;;;;;32.57;19.90;;;0.90;99.90;;;;;;5090199;27;20251;-48
2022/03/02 07:08:43;;;;;;;33.50;20.00;;;0.90;99.90;;;;;;5084507;27;20210;-52
2022/03/02 07:11:11;;;;;;;34.57;19.10;;;1.00;99.90;;;;;;5105667;27;20211;-51
2022/03/02 07:13:38;;;;;;;37.37;19.43;;;1.00;99.90;;;;;;5098678;27;20295;-50
2022/03/02 07:16:05;;;;;;;39.77;20.30;;;1.10;99.90;;;;;;5104572;27;20194;-54
2022/03/02 07:18:34;;;;;;;33.97;21.10;;;1.10;99.90;;;;;;5102790;27;20214;-54
2022/03/02 07:21:02;;;;;;;36.47;20.93;;;1.20;99.90;;;;;;5085787;28;20274;-55
2022/03/02 07:23:35;;;;;;;35.23;20.07;;;1.20;99.90;;;;;;5090374;28;20571;-52
2022/03/02 07:26:02;;;;;;;28.83;18.10;;;1.30;99.90;;;;;;5101572;28;20191;-54
2022/03/02 07:28:31;;;;;;;33.23;19.37;;;1.40;99.90;;;;;;5104632;28;20199;-51
2022/03/02 07:31:00;;;;;;;31.70;18.87;;;1.40;99.90;;;;;;5100762;28;20290;-54
2022/03/02 07:33:27;;;;;;;35.77;19.63;;;1.50;99.90;;;;;;5104588;28;20318;-53
2022/03/02 07:35:58;;;;;;;34.07;20.43;;;1.50;99.90;;;;;;5086680;28;20285;-50
2022/03/02 07:38:26;;;;;;;37.17;20.47;;;1.60;99.90;;;;;;5096053;28;20218;-51
2022/03/02 07:40:54;;;;;;;34.67;19.97;;;1.70;99.90;;;;;;5099661;28;20212;-51
2022/03/02 07:43:21;;;;;;;32.83;19.20;;;1.80;99.90;;;;;;5104043;28;20232;-51
2022/03/02 07:45:50;;;;;;;32.33;19.80;;;1.90;99.90;;;;;;5100094;28;20208;-56
2022/03/02 07:48:16;;;;;;;33.47;21.23;;;2.00;99.90;;;;;;5088303;28;20735;-54
2022/03/02 07:50:43;;;;;;;32.33;19.63;;;2.10;99.90;;;;;;5087175;27;20355;-50
2022/03/02 07:53:16;;;;;;;37.50;20.47;;;2.20;99.90;;;;;;5083311;27;20228;-53
2022/03/02 07:55:44;;;;;;;33.47;20.30;;;2.20;99.90;;;;;;5094376;27;20198;-51
2022/03/02 07:58:11;;;;;;;33.63;20.10;;;2.30;99.90;;;;;;5085011;27;20286;-49
2022/03/02 08:00:38;;;;;;;30.73;17.73;;;2.40;99.90;;;;;;5096251;27;20216;-53
2022/03/02 08:03:07;;;;;;;30.83;18.03;;;2.50;99.90;;;;;;5087795;28;20875;-51
2022/03/02 08:05:35;;;;;;;29.43;17.87;;;2.60;99.90;;;;;;5105170;27;20553;-50
2022/03/02 08:08:02;;;;;;;31.43;18.50;;;2.70;99.90;;;;;;5066888;27;20273;-56
2022/03/02 08:10:29;;;;;;;28.33;18.67;;;2.80;99.90;;;;;;5095940;28;20371;-52
2022/03/02 08:12:56;;;;;;;25.80;17.50;;;2.90;99.90;;;;;;5093441;27;20248;-53
2022/03/02 08:15:24;;;;;;;31.23;17.93;;;3.00;99.90;;;;;;5105174;27;20880;-50
2022/03/02 08:17:51;;;;;;;27.80;17.77;;;3.10;99.90;;;;;;5100743;28;20267;-54
2022/03/02 08:20:19;;;;;;;26.60;17.20;;;3.20;99.90;;;;;;5099623;28;20201;-55
2022/03/02 08:22:48;;;;;;;26.20;17.40;;;3.30;99.90;;;;;;5079278;28;20198;-51
2022/03/02 08:25:18;;;;;;;26.27;16.17;;;3.30;99.90;;;;;;5094071;28;20211;-50
2022/03/02 08:27:45;;;;;;;24.67;16.73;;;3.40;99.90;;;;;;5102838;28;20208;-56
2022/03/02 08:30:13;;;;;;;26.80;16.77;;;3.50;99.90;;;;;;5090731;28;20993;-49
2022/03/02 08:32:43;;;;;;;25.63;16.23;;;3.60;99.90;;;;;;5100920;28;20308;-51
2022/03/02 08:35:11;;;;;;;23.27;15.80;;;3.60;99.90;;;;;;5098904;28;20456;-49
2022/03/02 08:37:40;;;;;;;28.20;15.47;;;3.70;99.90;;;;;;5088688;28;20215;-51
2022/03/02 08:40:09;;;;;;;26.80;16.43;;;3.70;99.90;;;;;;5084497;28;20196;-50
2022/03/02 08:42:36;;;;;;;22.70;15.83;;;3.70;99.90;;;;;;5099697;28;20278;-53
2022/03/02 08:45:04;;;;;;;25.47;16.40;;;3.80;99.90;;;;;;5093562;28;20672;-53
2022/03/02 08:47:33;;;;;;;28.17;16.40;;;3.90;99.90;;;;;;5099786;28;20221;-52
2022/03/02 08:49:59;;;;;;;24.30;16.17;;;3.90;99.90;;;;;;5099656;28;20203;-54
2022/03/02 08:52:28;;;;;;;24.13;15.40;;;4.00;99.90;;;;;;5094689;28;20218;-52
2022/03/02 08:54:57;;;;;;;23.80;14.93;;;4.00;99.90;;;;;;5076905;28;20228;-54
2022/03/02 08:57:24;;;;;;;25.07;16.23;;;4.10;99.90;;;;;;5101092;28;20213;-50
2022/03/02 08:59:53;;;;;;;25.90;16.07;;;4.10;99.90;;;;;;5091757;28;20217;-55
2022/03/02 09:02:24;;;;;;;26.03;17.17;;;4.20;99.90;;;;;;5100542;28;20212;-51
2022/03/02 09:04:51;;;;;;;28.30;16.17;;;4.20;99.90;;;;;;5099636;28;20197;-55
2022/03/02 09:07:19;;;;;;;25.47;15.73;;;4.30;99.90;;;;;;5099313;28;20688;-51
2022/03/02 09:09:46;;;;;;;23.73;15.80;;;4.40;99.90;;;;;;5087210;28;20734;-55
2022/03/02 09:12:16;;;;;;;23.73;16.63;;;4.40;99.90;;;;;;5087617;28;20213;-51
2022/03/02 09:14:43;;;;;;;22.70;15.80;;;4.40;99.90;;;;;;5090447;28;20217;-51
2022/03/02 09:17:11;;;;;;;21.67;15.47;;;4.50;99.90;;;;;;5096413;28;20182;-50
2022/03/02 09:19:39;;;;;;;24.93;16.07;;;4.50;99.90;;;;;;5097845;28;20284;-49
2022/03/02 09:22:06;;;;;;;23.57;15.00;;;4.70;99.90;;;;;;5092571;28;20371;-50
2022/03/02 09:24:34;;;;;;;25.67;17.13;;;4.70;99.90;;;;;;5086243;28;20254;-53
2022/03/02 09:27:02;;;;;;;22.33;14.57;;;4.80;99.90;;;;;;5089153;28;20229;-51
2022/03/02 09:29:32;;;;;;;20.73;14.80;;;5.00;99.90;;;;;;5090706;28;20559;-55
2022/03/02 09:31:59;;;;;;;27.70;14.83;;;5.20;99.90;;;;;;5091916;28;20218;-54
2022/03/02 09:34:29;;;;;;;19.87;13.47;;;5.40;99.90;;;;;;5101583;28;20209;-51
2022/03/02 09:36:57;;;;;;;22.23;13.90;;;5.50;99.90;;;;;;5099371;28;20201;-54
2022/03/02 09:39:25;;;;;;;16.73;12.33;;;5.50;99.90;;;;;;5088501;28;20244;-50
2022/03/02 09:41:59;;;;;;;20.67;14.17;;;5.50;99.90;;;;;;5099752;28;20213;-51
2022/03/02 09:44:32;;;;;;;19.80;13.97;;;5.70;99.90;;;;;;5102884;28;20233;-55
2022/03/02 09:47:01;;;;;;;19.80;14.27;;;5.80;99.90;;;;;;5095442;28;21013;-52
2022/03/02 09:49:31;;;;;;;19.33;13.50;;;5.80;99.90;;;;;;5101665;28;20955;-48
2022/03/02 09:52:03;;;;;;;16.60;13.53;;;5.90;99.90;;;;;;5102926;28;20284;-50
2022/03/02 09:54:33;;;;;;;19.47;12.07;;;5.90;99.90;;;;;;5091643;28;20266;-54
2022/03/02 09:57:03;;;;;;;17.13;11.90;;;6.00;99.90;;;;;;5101738;28;20205;-53
2022/03/02 09:59:39;;;;;;;17.27;12.20;;;6.00;99.90;;;;;;5096805;28;20202;-54
2022/03/02 10:02:07;;;;;;;18.27;12.30;;;6.10;99.90;;;;;;5093871;28;20208;-56
2022/03/02 10:04:35;;;;;;;18.93;12.13;;;6.00;99.90;;;;;;5103969;28;20252;-52
2022/03/02 10:10:03;;;;;;;17.07;11.40;;;6.10;99.90;;;;;;5093830;28;20669;-56
2022/03/02 10:12:31;;;;;;;14.77;10.20;;;6.10;99.90;;;;;;5103722;28;20208;-53
2022/03/02 10:15:00;;;;;;;18.53;11.67;;;6.20;99.90;;;;;;5093345;27;20229;-53
2022/03/02 10:17:32;;;;;;;15.97;11.07;;;6.30;99.90;;;;;;5099182;28;20211;-51
2022/03/02 10:20:02;;;;;;;16.77;11.27;;;6.30;99.90;;;;;;5100939;28;20534;-51
2022/03/02 10:22:53;;;;;;;17.27;11.37;;;6.40;99.90;;;;;;5104955;28;20586;-55
2022/03/02 10:25:27;;;;;;;18.70;10.77;;;6.40;99.90;;;;;;5085084;28;23622;-55
2022/03/02 10:28:01;;;;;;;17.87;11.00;;;6.50;99.90;;;;;;5102221;28;20201;-54
2022/03/02 10:30:34;;;;;;;17.43;10.50;;;6.50;99.90;;;;;;5096461;28;20668;-52
2022/03/02 10:33:16;;;;;;;14.30;10.63;;;6.60;99.90;;;;;;5094119;28;20275;-54
2022/03/02 10:35:51;;;;;;;16.17;11.20;;;6.60;99.90;;;;;;5103910;28;20204;-54
2022/03/02 10:38:27;;;;;;;14.30;10.77;;;6.80;99.90;;;;;;5096231;28;20216;-54
2022/03/02 10:41:00;;;;;;;16.37;11.03;;;6.80;99.90;;;;;;5086052;28;20256;-54
2022/03/02 10:43:36;;;;;;;16.43;11.80;;;6.90;99.90;;;;;;5098963;28;20773;-54
2022/03/02 10:46:05;;;;;;;19.33;12.13;;;7.00;99.90;;;;;;5089629;28;20203;-53
2022/03/02 10:48:38;;;;;;;15.83;11.17;;;6.90;99.90;;;;;;5099746;28;20533;-48
2022/03/02 10:51:06;;;;;;;20.50;13.50;;;7.00;99.90;;;;;;5100302;28;21220;-50
2022/03/02 10:53:40;;;;;;;20.23;11.97;;;7.10;99.90;;;;;;5095631;28;20217;-54
2022/03/02 10:56:08;;;;;;;17.30;12.17;;;7.10;99.90;;;;;;5101358;28;20185;-54
2022/03/02 10:58:37;;;;;;;18.27;12.40;;;7.20;99.90;;;;;;5089997;28;20213;-53
2022/03/02 11:01:06;;;;;;;17.50;12.00;;;7.10;99.90;;;;;;5091913;28;21876;-52
2022/03/02 11:03:36;;;;;;;19.33;12.50;;;7.10;99.90;;;;;;5104014;28;20189;-56
2022/03/02 11:06:06;;;;;;;20.47;13.10;;;7.20;99.90;;;;;;5091574;28;20285;-53
2022/03/02 11:08:35;;;;;;;22.97;12.80;;;7.20;99.90;;;;;;5102938;28;20246;-53
2022/03/02 11:11:02;;;;;;;21.60;12.33;;;7.30;99.90;;;;;;5099247;28;20213;-50
2022/03/02 11:13:29;;;;;;;18.73;12.80;;;7.30;99.90;;;;;;5089321;28;20217;-54
2022/03/02 11:15:58;;;;;;;19.03;13.17;;;7.30;99.90;;;;;;5098862;28;20181;-53
2022/03/02 11:18:36;;;;;;;18.40;12.57;;;7.30;99.90;;;;;;5093443;28;20656;-52
2022/03/02 11:21:06;;;;;;;18.93;12.73;;;7.30;99.90;;;;;;5096863;28;20219;-52
2022/03/02 11:23:41;;;;;;;17.73;12.10;;;7.40;99.90;;;;;;5102391;28;20220;-53
2022/03/02 11:26:11;;;;;;;20.33;14.00;;;7.40;99.90;;;;;;5101896;28;20189;-51
2022/03/02 11:28:39;;;;;;;20.43;13.67;;;7.50;99.90;;;;;;5097437;28;20205;-54
2022/03/02 11:31:08;;;;;;;20.43;12.33;;;7.50;99.90;;;;;;5093971;28;20217;-52
2022/03/02 11:33:36;;;;;;;18.50;13.33;;;7.60;99.90;;;;;;5087220;28;20244;-54
2022/03/02 11:36:11;;;;;;;20.27;13.33;;;7.70;99.90;;;;;;5094901;28;20204;-50
2022/03/02 11:38:42;;;;;;;20.40;13.47;;;7.70;99.90;;;;;;5102718;28;20205;-53
2022/03/02 11:41:12;;;;;;;19.40;13.97;;;7.70;99.90;;;;;;5100642;28;20977;-53
2022/03/02 11:43:39;;;;;;;21.93;13.57;;;7.80;99.90;;;;;;5094990;28;20197;-50
2022/03/02 11:46:10;;;;;;;21.60;14.20;;;7.90;99.90;;;;;;5088233;28;20311;-53
2022/03/02 11:48:41;;;;;;;21.20;14.40;;;8.10;99.90;;;;;;5089224;28;20211;-51
2022/03/02 11:51:13;;;;;;;23.53;13.53;;;8.00;99.90;;;;;;5094703;28;20220;-50
2022/03/02 11:53:42;;;;;;;21.33;13.70;;;7.90;99.90;;;;;;5101359;28;20209;-54
2022/03/02 11:56:12;;;;;;;21.53;12.60;;;7.90;99.90;;;;;;5096111;28;20185;-55
2022/03/02 11:59:03;;;;;;;16.13;12.93;;;7.90;99.90;;;;;;5101993;28;20840;-55
2022/03/02 12:01:41;;;;;;;18.40;12.33;;;8.00;99.90;;;;;;5089652;28;20225;-51
2022/03/02 12:04:10;;;;;;;19.17;13.07;;;8.10;99.90;;;;;;5092195;28;20197;-51
2022/03/02 12:06:43;;;;;;;18.60;11.97;;;8.20;99.90;;;;;;5089087;28;20662;-53
2022/03/02 12:09:13;;;;;;;19.70;13.57;;;8.10;99.90;;;;;;5092168;28;20183;-51
2022/03/02 12:11:40;;;;;;;21.93;12.50;;;8.00;99.90;;;;;;5094499;28;20212;-55
2022/03/02 12:14:08;;;;;;;19.80;12.60;;;8.00;99.90;;;;;;5094894;28;20296;-49
2022/03/02 12:16:40;;;;;;;19.33;13.03;;;8.20;99.90;;;;;;5085608;28;20338;-55
2022/03/02 12:19:20;;;;;;;19.20;13.13;;;8.20;99.80;;;;;;5087939;28;20280;-53
2022/03/02 12:21:47;;;;;;;18.50;11.97;;;8.20;98.70;;;;;;5092887;28;20307;-50
2022/03/02 12:24:21;;;;;;;19.60;13.00;;;8.10;99.30;;;;;;5102459;28;20201;-49
2022/03/02 12:26:49;;;;;;;23.90;12.63;;;8.10;99.90;;;;;;5098627;28;20221;-55
2022/03/02 12:29:16;;;;;;;17.87;12.23;;;8.20;99.70;;;;;;5097392;28;20193;-51
2022/03/02 12:31:47;;;;;;;21.90;12.80;;;8.30;99.70;;;;;;5086704;28;20232;-52
2022/03/02 12:34:15;;;;;;;19.20;13.33;;;8.40;99.20;;;;;;5089937;28;20217;-55
2022/03/02 12:36:43;;;;;;;17.93;12.30;;;8.50;99.60;;;;;;5095652;28;20205;-54
2022/03/02 12:39:10;;;;;;;16.03;11.43;;;8.50;98.40;;;;;;5101096;28;20219;-51
2022/03/02 12:41:38;;;;;;;18.33;12.10;;;8.50;98.20;;;;;;5089963;28;20772;-52
2022/03/02 12:44:05;;;;;;;17.07;12.20;;;8.50;98.50;;;;;;5099614;28;20186;-52